Time;durP1;ratioP1;P1;durP2;ratioP2;P2;SDS_P1;SDS_P2;PMS_P1;PMS_P2;Temp;Humidity;BMP_temperature;BMP_pressure;BME280_temperature;BME280_humidity;BME280_pressure;Samples;Min_cycle;Max_cycle;Signal;HPM_P1;HPM_P2
2024/01/03 00:01:53;;;;;;;1.00;0.30;;;;;;;;;;10478145;28;20050;-75
2024/01/03 00:06:57;;;;;;;1.23;0.45;;;;;;;;;;10484409;28;20082;-75
2024/01/03 00:12:02;;;;;;;2.70;0.68;;;;;;;;;;10478503;28;20128;-75
2024/01/03 00:17:07;;;;;;;1.00;0.60;;;;;;;;;;10473441;28;20049;-75
2024/01/03 00:22:13;;;;;;;2.13;0.50;;;;;;;;;;10477492;28;20620;-76
2024/01/03 00:27:20;;;;;;;1.08;0.70;;;;;;;;;;10467812;28;20158;-75
2024/01/03 00:32:25;;;;;;;1.70;0.73;;;;;;;;;;10480039;28;20044;-75
2024/01/03 00:37:34;;;;;;;3.80;0.70;;;;;;;;;;10478300;28;20090;-75
2024/01/03 00:42:37;;;;;;;3.45;1.10;;;;;;;;;;10477635;28;20036;-75
2024/01/03 00:47:42;;;;;;;4.40;0.90;;;;;;;;;;10453910;28;20036;-75
2024/01/03 00:52:45;;;;;;;3.33;0.93;;;;;;;;;;10468637;28;20036;-75
2024/01/03 00:57:48;;;;;;;2.35;0.60;;;;;;;;;;10470551;28;20750;-75
2024/01/03 01:02:53;;;;;;;4.88;1.00;;;;;;;;;;10477358;28;20425;-75
2024/01/03 01:07:56;;;;;;;4.65;0.93;;;;;;;;;;10471198;28;20036;-75
2024/01/03 01:12:59;;;;;;;3.92;1.10;;;;;;;;;;10474282;28;20062;-75
2024/01/03 01:18:04;;;;;;;1.67;1.00;;;;;;;;;;10462369;28;20045;-75
2024/01/03 01:23:08;;;;;;;2.15;0.75;;;;;;;;;;10455855;28;20446;-75
2024/01/03 01:28:11;;;;;;;0.80;0.68;;;;;;;;;;10479363;28;20401;-75
2024/01/03 01:33:15;;;;;;;2.40;0.68;;;;;;;;;;10475294;28;20040;-75
2024/01/03 01:38:19;;;;;;;1.55;0.82;;;;;;;;;;10482858;28;20056;-75
2024/01/03 01:43:22;;;;;;;1.42;0.63;;;;;;;;;;10475455;28;20506;-75
2024/01/03 01:48:27;;;;;;;1.42;0.77;;;;;;;;;;10478141;28;20523;-75
2024/01/03 01:53:30;;;;;;;4.80;1.05;;;;;;;;;;10474943;28;20405;-75
2024/01/03 01:58:34;;;;;;;2.92;1.10;;;;;;;;;;10476261;28;20139;-75
2024/01/03 02:03:39;;;;;;;5.93;1.08;;;;;;;;;;10458893;28;20045;-75
2024/01/03 02:08:42;;;;;;;3.78;1.20;;;;;;;;;;10478489;28;20041;-75
2024/01/03 02:13:47;;;;;;;4.28;1.40;;;;;;;;;;10467481;28;20573;-75
2024/01/03 02:18:54;;;;;;;4.90;1.15;;;;;;;;;;10457564;28;20049;-75
2024/01/03 02:23:58;;;;;;;5.00;1.40;;;;;;;;;;10471057;28;20049;-75
2024/01/03 02:29:01;;;;;;;4.70;1.35;;;;;;;;;;10451246;28;20051;-75
2024/01/03 02:34:05;;;;;;;4.03;1.45;;;;;;;;;;10464940;28;20547;-75
2024/01/03 02:39:09;;;;;;;6.90;1.85;;;;;;;;;;10468794;28;20052;-75
2024/01/03 02:44:12;;;;;;;4.10;1.33;;;;;;;;;;10468213;28;20035;-75
2024/01/03 02:49:16;;;;;;;6.80;1.75;;;;;;;;;;10477892;28;20033;-75
2024/01/03 02:54:20;;;;;;;4.55;1.42;;;;;;;;;;10472654;28;20124;-75
2024/01/03 02:59:24;;;;;;;7.18;1.60;;;;;;;;;;10471485;28;20041;-75
2024/01/03 03:04:27;;;;;;;6.50;1.70;;;;;;;;;;10472673;28;20044;-75
2024/01/03 03:09:32;;;;;;;8.60;1.55;;;;;;;;;;10475290;28;20591;-75
2024/01/03 03:14:35;;;;;;;5.20;1.38;;;;;;;;;;10473688;28;20045;-75
2024/01/03 03:19:38;;;;;;;10.63;1.98;;;;;;;;;;10475064;28;20247;-75
2024/01/03 03:24:43;;;;;;;9.35;1.70;;;;;;;;;;10469272;28;20056;-75
2024/01/03 03:29:46;;;;;;;6.60;1.80;;;;;;;;;;10469406;28;20036;-75
2024/01/03 03:34:52;;;;;;;7.63;1.75;;;;;;;;;;10470807;28;20047;-75
2024/01/03 03:39:56;;;;;;;4.28;1.40;;;;;;;;;;10468860;28;20504;-75
2024/01/03 03:44:59;;;;;;;7.20;1.70;;;;;;;;;;10470008;28;20049;-75
2024/01/03 03:50:03;;;;;;;4.28;1.55;;;;;;;;;;10475108;28;20135;-75
2024/01/03 03:55:08;;;;;;;6.00;1.35;;;;;;;;;;10478414;28;20048;-75
2024/01/03 04:00:14;;;;;;;4.73;1.40;;;;;;;;;;10470938;28;20057;-75
2024/01/03 04:05:18;;;;;;;7.72;1.40;;;;;;;;;;10469304;28;20532;-75
2024/01/03 04:10:22;;;;;;;4.07;1.30;;;;;;;;;;10465237;28;20131;-75
2024/01/03 04:15:26;;;;;;;3.58;1.20;;;;;;;;;;10482276;28;20413;-75
2024/01/03 04:20:30;;;;;;;5.60;1.60;;;;;;;;;;10484060;28;20139;-75
2024/01/03 04:25:34;;;;;;;4.40;1.25;;;;;;;;;;10480367;28;20479;-75
2024/01/03 04:30:38;;;;;;;8.10;1.48;;;;;;;;;;10481585;28;20434;-75
2024/01/03 04:35:41;;;;;;;4.15;1.05;;;;;;;;;;10485487;28;20055;-75
2024/01/03 04:40:46;;;;;;;7.18;1.67;;;;;;;;;;10458879;28;20413;-75
2024/01/03 04:45:49;;;;;;;7.32;1.65;;;;;;;;;;10478410;28;20051;-75
2024/01/03 04:50:52;;;;;;;10.13;2.05;;;;;;;;;;10467533;28;20049;-75
2024/01/03 04:55:57;;;;;;;6.72;1.70;;;;;;;;;;10481020;28;20129;-75
2024/01/03 05:01:00;;;;;;;9.55;2.03;;;;;;;;;;10484331;22;20028;-76
2024/01/03 05:06:04;;;;;;;8.52;2.30;;;;;;;;;;10419560;28;20480;-76
2024/01/03 05:11:09;;;;;;;12.60;2.53;;;;;;;;;;10411400;28;20085;-76
2024/01/03 05:16:14;;;;;;;8.27;2.20;;;;;;;;;;10406877;28;20155;-76
2024/01/03 05:21:17;;;;;;;8.23;1.92;;;;;;;;;;10408181;28;20043;-75
2024/01/03 05:26:22;;;;;;;8.23;2.35;;;;;;;;;;10407034;28;20043;-76
2024/01/03 05:31:25;;;;;;;8.82;2.00;;;;;;;;;;10387939;28;20044;-75
2024/01/03 05:36:28;;;;;;;7.72;2.10;;;;;;;;;;10395445;28;20046;-75
2024/01/03 05:41:33;;;;;;;13.88;2.03;;;;;;;;;;10399914;28;20410;-75
2024/01/03 05:46:36;;;;;;;7.35;1.38;;;;;;;;;;10398885;28;20212;-75
2024/01/03 05:51:39;;;;;;;8.52;2.40;;;;;;;;;;10403699;28;20048;-75
2024/01/03 05:56:44;;;;;;;7.57;1.42;;;;;;;;;;10398095;28;20037;-75
2024/01/03 06:01:47;;;;;;;6.50;2.08;;;;;;;;;;10400279;28;20121;-75
2024/01/03 06:06:50;;;;;;;7.35;2.10;;;;;;;;;;10401642;28;20047;-75
2024/01/03 06:11:55;;;;;;;5.20;1.85;;;;;;;;;;10400891;28;20061;-76
2024/01/03 06:16:58;;;;;;;8.15;2.15;;;;;;;;;;10399919;28;20156;-76
2024/01/03 06:22:01;;;;;;;8.80;1.80;;;;;;;;;;10381291;28;20040;-76
2024/01/03 06:27:06;;;;;;;6.05;1.70;;;;;;;;;;10392300;28;20042;-75
2024/01/03 06:32:09;;;;;;;8.77;1.85;;;;;;;;;;10396548;28;20083;-75
2024/01/03 06:37:13;;;;;;;7.18;1.70;;;;;;;;;;10405523;28;20129;-75
2024/01/03 06:42:17;;;;;;;11.35;2.20;;;;;;;;;;10403509;28;20056;-75
2024/01/03 06:47:21;;;;;;;6.53;2.05;;;;;;;;;;10401966;28;20692;-75
2024/01/03 06:52:24;;;;;;;6.38;1.70;;;;;;;;;;10394700;28;20038;-75
2024/01/03 06:57:29;;;;;;;12.00;2.78;;;;;;;;;;10406039;28;20668;-75
2024/01/03 07:02:32;;;;;;;10.00;2.33;;;;;;;;;;10401344;28;20040;-75
2024/01/03 07:07:35;;;;;;;9.80;2.13;;;;;;;;;;10403124;28;20461;-75
2024/01/03 07:12:40;;;;;;;5.20;1.73;;;;;;;;;;10382280;28;20442;-75
2024/01/03 07:17:43;;;;;;;3.00;0.90;;;;;;;;;;10402859;28;20047;-75
2024/01/03 07:22:47;;;;;;;7.75;1.75;;;;;;;;;;10403794;28;20061;-75
2024/01/03 07:27:51;;;;;;;5.43;1.50;;;;;;;;;;10407728;28;20060;-75
2024/01/03 07:32:56;;;;;;;6.22;1.70;;;;;;;;;;10394391;28;20042;-75
2024/01/03 07:37:59;;;;;;;3.70;1.13;;;;;;;;;;10411801;28;20053;-74
2024/01/03 07:43:04;;;;;;;3.78;1.27;;;;;;;;;;10411888;28;20038;-74
2024/01/03 07:48:08;;;;;;;6.50;1.42;;;;;;;;;;10403949;28;20120;-74
2024/01/03 07:53:11;;;;;;;6.35;1.40;;;;;;;;;;10403262;28;20653;-75
2024/01/03 07:58:16;;;;;;;7.85;1.85;;;;;;;;;;10408254;28;20167;-75
2024/01/03 08:03:19;;;;;;;3.97;0.95;;;;;;;;;;10386110;28;20037;-75
2024/01/03 08:08:22;;;;;;;6.68;1.67;;;;;;;;;;10400188;28;20045;-75
2024/01/03 08:13:27;;;;;;;6.30;1.60;;;;;;;;;;10400163;28;20542;-75
2024/01/03 08:18:30;;;;;;;3.75;1.30;;;;;;;;;;10386876;28;20060;-75
2024/01/03 08:23:33;;;;;;;6.72;1.38;;;;;;;;;;10405448;28;20041;-75
2024/01/03 08:28:40;;;;;;;6.53;1.77;;;;;;;;;;10411118;28;20045;-75
2024/01/03 08:33:43;;;;;;;;;;;;;;;;;;10406955;28;20064;-76
2024/01/03 08:38:46;;;;;;;5.07;1.40;;;;;;;;;;10401959;28;20000;-76
2024/01/03 08:43:51;;;;;;;4.97;1.40;;;;;;;;;;10404687;28;20113;-75
2024/01/03 08:48:54;;;;;;;6.35;1.65;;;;;;;;;;10409055;28;20518;-75
2024/01/03 08:53:58;;;;;;;3.38;1.30;;;;;;;;;;10403730;28;20045;-76
2024/01/03 08:59:04;;;;;;;5.55;1.27;;;;;;;;;;10400134;28;20458;-75
2024/01/03 09:04:07;;;;;;;;;;;;;;;;;;10399528;28;20073;-76
2024/01/03 09:09:10;;;;;;;4.35;1.25;;;;;;;;;;10407614;28;19932;-75
2024/01/03 09:14:16;;;;;;;5.05;1.27;;;;;;;;;;10397346;28;20426;-75
2024/01/03 09:19:19;;;;;;;9.57;1.63;;;;;;;;;;10402405;28;20050;-75
2024/01/03 09:24:22;;;;;;;6.35;1.48;;;;;;;;;;10403965;28;20061;-75
2024/01/03 09:29:27;;;;;;;4.55;1.77;;;;;;;;;;10389857;28;20049;-75
2024/01/03 09:34:30;;;;;;;4.60;1.65;;;;;;;;;;10409358;28;20049;-75
2024/01/03 09:39:33;;;;;;;7.90;1.80;;;;;;;;;;10408321;28;20041;-75
2024/01/03 09:44:38;;;;;;;7.82;1.50;;;;;;;;;;10412918;28;20046;-75
2024/01/03 09:49:42;;;;;;;10.95;2.17;;;;;;;;;;10417517;28;20050;-75
2024/01/03 09:54:45;;;;;;;9.50;1.85;;;;;;;;;;10416248;28;20065;-75
2024/01/03 09:59:50;;;;;;;6.47;1.80;;;;;;;;;;10415655;28;20049;-75
2024/01/03 10:04:53;;;;;;;5.72;1.73;;;;;;;;;;10418371;28;20061;-75
2024/01/03 10:09:57;;;;;;;8.10;1.80;;;;;;;;;;10409000;28;20084;-75
2024/01/03 10:15:16;;;;;;;8.23;1.95;;;;;;;;;;10409094;28;20041;-75
2024/01/03 10:20:25;;;;;;;11.13;2.08;;;;;;;;;;10406746;28;20515;-75
2024/01/03 10:25:29;;;;;;;9.98;2.22;;;;;;;;;;10410420;28;20518;-75
2024/01/03 10:30:33;;;;;;;7.22;1.88;;;;;;;;;;10405917;28;20049;-74
2024/01/03 10:35:37;;;;;;;7.60;1.80;;;;;;;;;;10391493;28;20056;-75
2024/01/03 10:40:41;;;;;;;8.13;1.88;;;;;;;;;;10408940;28;20038;-76
2024/01/03 10:45:46;;;;;;;6.45;1.58;;;;;;;;;;10401937;28;20045;-75
2024/01/03 10:50:49;;;;;;;8.15;1.85;;;;;;;;;;10406693;28;20053;-76
2024/01/03 10:55:56;;;;;;;7.60;2.40;;;;;;;;;;10408373;28;20046;-75
2024/01/03 11:01:07;;;;;;;11.43;2.72;;;;;;;;;;10409032;23;20029;-73
2024/01/03 11:06:18;;;;;;;8.15;2.17;;;;;;;;;;10383219;28;20071;-74
2024/01/03 11:11:35;;;;;;;10.30;1.90;;;;;;;;;;10399782;28;20568;-73
2024/01/03 11:16:40;;;;;;;10.32;2.20;;;;;;;;;;10399230;28;20032;-73
2024/01/03 11:21:46;;;;;;;6.65;1.80;;;;;;;;;;10398468;28;20044;-73
2024/01/03 11:27:04;;;;;;;6.90;2.15;;;;;;;;;;10397966;28;20038;-74
2024/01/03 11:32:11;;;;;;;6.55;1.90;;;;;;;;;;10397832;28;20587;-73
2024/01/03 11:37:35;;;;;;;5.40;1.48;;;;;;;;;;10379462;28;20080;-74
2024/01/03 11:42:39;;;;;;;7.15;2.13;;;;;;;;;;10397451;28;20045;-73
2024/01/03 11:47:46;;;;;;;4.93;1.60;;;;;;;;;;10399440;28;20045;-73
2024/01/03 11:52:51;;;;;;;7.03;1.67;;;;;;;;;;10399133;28;20467;-73
2024/01/03 11:58:04;;;;;;;8.13;2.13;;;;;;;;;;10397360;28;20524;-74
2024/01/03 12:03:09;;;;;;;6.88;1.77;;;;;;;;;;10392117;28;20067;-73
2024/01/03 12:08:14;;;;;;;11.55;2.47;;;;;;;;;;10398785;28;20124;-74
2024/01/03 12:13:17;;;;;;;7.05;2.00;;;;;;;;;;10389971;28;20033;-73
2024/01/03 12:18:25;;;;;;;6.88;2.00;;;;;;;;;;10407319;28;20037;-73
2024/01/03 12:23:28;;;;;;;5.25;1.80;;;;;;;;;;10405052;28;20053;-74
2024/01/03 12:28:31;;;;;;;6.30;1.75;;;;;;;;;;10405611;28;20559;-73
2024/01/03 12:33:36;;;;;;;6.40;1.98;;;;;;;;;;10405497;28;20674;-73
2024/01/03 12:38:40;;;;;;;6.25;1.83;;;;;;;;;;10398037;28;20503;-73
2024/01/03 12:43:43;;;;;;;5.10;1.30;;;;;;;;;;10404484;28;20531;-74
2024/01/03 12:48:48;;;;;;;6.93;1.95;;;;;;;;;;10403221;28;20045;-73
2024/01/03 12:53:51;;;;;;;6.57;1.55;;;;;;;;;;10404788;28;20057;-73
2024/01/03 12:58:54;;;;;;;2.85;1.20;;;;;;;;;;10392667;28;20046;-73
2024/01/03 13:03:59;;;;;;;3.03;1.10;;;;;;;;;;10391821;28;20136;-73
2024/01/03 13:09:04;;;;;;;3.63;1.17;;;;;;;;;;10405046;28;20048;-73
2024/01/03 13:14:07;;;;;;;3.25;1.23;;;;;;;;;;10401708;28;20502;-73
2024/01/03 13:19:13;;;;;;;2.45;0.90;;;;;;;;;;10402769;28;20071;-73
2024/01/03 13:24:16;;;;;;;1.58;0.77;;;;;;;;;;10396613;28;20403;-73
2024/01/03 13:29:19;;;;;;;3.42;0.90;;;;;;;;;;10403563;28;20048;-74
2024/01/03 13:34:24;;;;;;;3.30;0.93;;;;;;;;;;10398106;28;20041;-73
2024/01/03 13:39:28;;;;;;;3.88;1.08;;;;;;;;;;10401542;28;20187;-73
2024/01/03 13:44:31;;;;;;;7.28;1.90;;;;;;;;;;10400687;28;20460;-73
2024/01/03 13:49:36;;;;;;;4.53;1.50;;;;;;;;;;10383133;28;20054;-73
2024/01/03 13:54:39;;;;;;;5.28;1.60;;;;;;;;;;10401179;28;20700;-73
2024/01/03 13:59:42;;;;;;;5.43;1.63;;;;;;;;;;10400417;28;20130;-73
2024/01/03 14:04:47;;;;;;;9.27;1.73;;;;;;;;;;10391339;28;20491;-74
2024/01/03 14:09:50;;;;;;;6.75;2.22;;;;;;;;;;10390989;28;20042;-74
2024/01/03 14:14:54;;;;;;;4.28;1.63;;;;;;;;;;10391515;28;20049;-73
2024/01/03 14:19:58;;;;;;;6.70;1.52;;;;;;;;;;10397525;28;20559;-74
2024/01/03 14:25:02;;;;;;;6.97;1.70;;;;;;;;;;10396262;28;20560;-74
2024/01/03 14:30:09;;;;;;;6.60;1.80;;;;;;;;;;10394815;28;20095;-73
2024/01/03 14:35:15;;;;;;;8.07;1.65;;;;;;;;;;10398569;28;20469;-74
2024/01/03 14:40:21;;;;;;;3.53;1.40;;;;;;;;;;10398105;28;20049;-74
2024/01/03 14:45:24;;;;;;;;;;;;;;;;;;10398264;28;20041;-74
2024/01/03 14:50:29;;;;;;;7.18;1.95;;;;;;;;;;10398913;28;19931;-74
2024/01/03 14:55:33;;;;;;;4.30;1.17;;;;;;;;;;10400669;28;20037;-74
2024/01/03 15:00:36;;;;;;;11.02;3.10;;;;;;;;;;10397988;28;20633;-74
2024/01/03 15:05:42;;;;;;;7.78;2.67;;;;;;;;;;10399580;28;20041;-74
2024/01/03 15:10:47;;;;;;;4.70;1.98;;;;;;;;;;10406810;28;20056;-73
2024/01/03 15:15:50;;;;;;;6.75;1.25;;;;;;;;;;10380830;28;20038;-74
2024/01/03 15:20:55;;;;;;;4.25;1.17;;;;;;;;;;10399930;28;20125;-73
2024/01/03 15:26:00;;;;;;;2.63;0.98;;;;;;;;;;10398268;28;20576;-74
2024/01/03 15:31:04;;;;;;;2.28;1.05;;;;;;;;;;10398554;28;20413;-73
2024/01/03 15:36:08;;;;;;;3.17;1.20;;;;;;;;;;10393227;28;20137;-73
2024/01/03 15:41:16;;;;;;;4.78;1.00;;;;;;;;;;10390045;28;20141;-74
2024/01/03 15:46:19;;;;;;;3.72;1.30;;;;;;;;;;10402304;28;20121;-73
2024/01/03 15:51:24;;;;;;;5.10;1.65;;;;;;;;;;10408569;28;20045;-73
2024/01/03 15:56:28;;;;;;;11.48;1.80;;;;;;;;;;10403231;28;20053;-74
2024/01/03 16:01:31;;;;;;;8.30;1.80;;;;;;;;;;10406370;28;20045;-74
2024/01/03 16:06:37;;;;;;;5.75;1.63;;;;;;;;;;10400153;28;20113;-73
2024/01/03 16:11:40;;;;;;;3.08;1.38;;;;;;;;;;10400836;28;20045;-73
2024/01/03 16:16:44;;;;;;;6.78;1.17;;;;;;;;;;10403936;28;20048;-73
2024/01/03 16:21:48;;;;;;;2.13;0.60;;;;;;;;;;10405324;28;20041;-73
2024/01/03 16:26:54;;;;;;;3.22;1.23;;;;;;;;;;10401479;28;20049;-73
2024/01/03 16:32:00;;;;;;;1.75;0.90;;;;;;;;;;10401733;28;20053;-73
2024/01/03 16:37:07;;;;;;;1.98;0.82;;;;;;;;;;10403488;28;20049;-72
2024/01/03 16:42:10;;;;;;;2.50;1.00;;;;;;;;;;10400861;28;20120;-73
2024/01/03 16:47:14;;;;;;;4.07;1.17;;;;;;;;;;10397902;28;20045;-72
2024/01/03 16:52:18;;;;;;;4.68;2.22;;;;;;;;;;10404630;28;20056;-72
2024/01/03 16:57:22;;;;;;;4.57;2.00;;;;;;;;;;10398047;28;20056;-72
2024/01/03 17:02:26;;;;;;;2.20;1.17;;;;;;;;;;10414533;23;20053;-74
2024/01/03 17:07:30;;;;;;;2.53;0.80;;;;;;;;;;10379198;28;20128;-75
2024/01/03 17:12:34;;;;;;;1.77;1.08;;;;;;;;;;10375541;28;20052;-73
2024/01/03 17:17:38;;;;;;;1.73;1.25;;;;;;;;;;10392379;28;20091;-73
2024/01/03 17:22:43;;;;;;;3.65;1.40;;;;;;;;;;10392416;28;20080;-73
2024/01/03 17:27:46;;;;;;;3.17;1.45;;;;;;;;;;10398015;28;20046;-73
2024/01/03 17:32:49;;;;;;;0.77;0.70;;;;;;;;;;10398924;28;20419;-73
2024/01/03 17:37:56;;;;;;;1.15;0.70;;;;;;;;;;10373271;28;20153;-73
2024/01/03 17:42:59;;;;;;;0.93;0.50;;;;;;;;;;10388317;28;20438;-74
2024/01/03 17:48:02;;;;;;;0.50;0.50;;;;;;;;;;10388260;28;20048;-73
2024/01/03 17:53:07;;;;;;;1.02;0.40;;;;;;;;;;10385298;28;20402;-73
2024/01/03 17:58:10;;;;;;;1.35;0.50;;;;;;;;;;10394901;28;20056;-73
2024/01/03 18:03:14;;;;;;;0.85;0.50;;;;;;;;;;10391759;28;20116;-73
2024/01/03 18:08:19;;;;;;;2.72;0.73;;;;;;;;;;10385310;28;20069;-73
2024/01/03 18:13:23;;;;;;;1.25;0.50;;;;;;;;;;10384638;28;20048;-73
2024/01/03 18:18:26;;;;;;;1.00;0.50;;;;;;;;;;10379795;28;20503;-73
2024/01/03 18:23:35;;;;;;;1.02;0.65;;;;;;;;;;10386674;28;20136;-73
2024/01/03 18:28:40;;;;;;;1.45;0.70;;;;;;;;;;10383762;28;20095;-73
2024/01/03 18:33:43;;;;;;;1.27;0.45;;;;;;;;;;10383235;28;20179;-73
2024/01/03 18:38:49;;;;;;;0.88;0.57;;;;;;;;;;10390637;28;20045;-73
2024/01/03 18:43:52;;;;;;;1.50;0.63;;;;;;;;;;10388537;28;20058;-73
2024/01/03 18:48:55;;;;;;;2.35;0.80;;;;;;;;;;10391459;28;20084;-73
2024/01/03 18:54:00;;;;;;;0.57;0.50;;;;;;;;;;10394984;28;20278;-72
2024/01/03 18:59:03;;;;;;;1.98;0.90;;;;;;;;;;10389291;28;20618;-73
2024/01/03 19:04:08;;;;;;;1.65;0.70;;;;;;;;;;10387970;28;20050;-72
2024/01/03 19:09:13;;;;;;;1.00;0.63;;;;;;;;;;10386268;28;20124;-73
2024/01/03 19:14:16;;;;;;;2.15;0.73;;;;;;;;;;10397451;28;20037;-73
2024/01/03 19:19:19;;;;;;;2.97;0.68;;;;;;;;;;10387619;28;20045;-73
2024/01/03 19:24:24;;;;;;;2.10;0.80;;;;;;;;;;10400519;28;20046;-73
2024/01/03 19:29:27;;;;;;;6.53;1.38;;;;;;;;;;10392056;28;21173;-73
2024/01/03 19:34:31;;;;;;;2.97;0.90;;;;;;;;;;10396790;28;20141;-73
2024/01/03 19:39:35;;;;;;;3.05;0.88;;;;;;;;;;10396251;28;20034;-74
2024/01/03 19:44:39;;;;;;;3.25;0.90;;;;;;;;;;10394907;28;20048;-73
2024/01/03 19:49:42;;;;;;;4.28;1.27;;;;;;;;;;10400212;28;20038;-73
2024/01/03 19:54:47;;;;;;;2.30;0.90;;;;;;;;;;10403567;28;20048;-73
2024/01/03 19:59:50;;;;;;;1.77;1.13;;;;;;;;;;10380102;28;20050;-73
2024/01/03 20:04:53;;;;;;;2.90;1.00;;;;;;;;;;10386628;28;20055;-72
2024/01/03 20:09:59;;;;;;;3.00;1.20;;;;;;;;;;10401515;28;20045;-73
2024/01/03 20:15:04;;;;;;;1.73;0.83;;;;;;;;;;10399186;28;20283;-73
2024/01/03 20:20:09;;;;;;;2.40;0.82;;;;;;;;;;10396482;28;20060;-73
2024/01/03 20:25:13;;;;;;;4.07;1.00;;;;;;;;;;10387799;28;20049;-73
2024/01/03 20:30:17;;;;;;;1.67;0.70;;;;;;;;;;10378435;28;20064;-73
2024/01/03 20:35:20;;;;;;;3.17;1.30;;;;;;;;;;10394513;28;20576;-73
2024/01/03 20:40:25;;;;;;;2.72;1.25;;;;;;;;;;10396811;28;20541;-74
2024/01/03 20:45:29;;;;;;;1.52;0.85;;;;;;;;;;10401726;28;20659;-74
2024/01/03 20:50:34;;;;;;;0.90;0.68;;;;;;;;;;10399636;28;20029;-73
2024/01/03 20:55:39;;;;;;;2.97;0.70;;;;;;;;;;10403646;28;20129;-73
2024/01/03 21:00:42;;;;;;;1.05;0.60;;;;;;;;;;10389795;28;20041;-73
2024/01/03 21:05:46;;;;;;;1.95;0.60;;;;;;;;;;10380088;28;20120;-73
2024/01/03 21:10:50;;;;;;;1.17;0.57;;;;;;;;;;10385838;28;20046;-73
2024/01/03 21:15:53;;;;;;;2.42;1.00;;;;;;;;;;10389214;28;20049;-73
2024/01/03 21:20:59;;;;;;;1.42;0.73;;;;;;;;;;10383436;28;20048;-73
2024/01/03 21:26:11;;;;;;;1.60;0.85;;;;;;;;;;10382033;28;20641;-73
2024/01/03 21:31:14;;;;;;;2.92;1.30;;;;;;;;;;10373114;28;20049;-73
2024/01/03 21:36:20;;;;;;;2.17;1.10;;;;;;;;;;10387921;28;20053;-74
2024/01/03 21:41:24;;;;;;;1.10;0.50;;;;;;;;;;10389041;28;20056;-73
2024/01/03 21:46:28;;;;;;;1.55;0.52;;;;;;;;;;10375406;28;20053;-73
2024/01/03 21:51:31;;;;;;;2.00;0.95;;;;;;;;;;10398359;28;20053;-73
2024/01/03 21:56:39;;;;;;;1.63;0.60;;;;;;;;;;10393129;28;20045;-73
2024/01/03 22:01:46;;;;;;;1.42;0.50;;;;;;;;;;10393117;28;20048;-73
2024/01/03 22:06:50;;;;;;;0.55;0.40;;;;;;;;;;10395964;28;20046;-73
2024/01/03 22:11:57;;;;;;;1.42;0.65;;;;;;;;;;10394374;28;20045;-73
2024/01/03 22:17:00;;;;;;;0.55;0.30;;;;;;;;;;10391485;28;20103;-73
2024/01/03 22:22:03;;;;;;;1.35;0.40;;;;;;;;;;10392113;28;20033;-73
2024/01/03 22:27:08;;;;;;;0.75;0.47;;;;;;;;;;10400026;28;20511;-73
2024/01/03 22:32:11;;;;;;;0.82;0.40;;;;;;;;;;10386759;28;20045;-73
2024/01/03 22:37:14;;;;;;;1.52;0.50;;;;;;;;;;10394775;28;20056;-73
2024/01/03 22:42:19;;;;;;;1.75;0.70;;;;;;;;;;10386053;28;20053;-73
2024/01/03 22:47:22;;;;;;;4.60;2.03;;;;;;;;;;10392998;28;20040;-73
2024/01/03 22:52:25;;;;;;;1.38;1.00;;;;;;;;;;10388156;28;20050;-73
2024/01/03 22:57:30;;;;;;;3.80;1.90;;;;;;;;;;10378584;28;20041;-73
2024/01/03 23:02:34;;;;;;;4.03;1.70;;;;;;;;;;10391976;28;20053;-73
2024/01/03 23:07:38;;;;;;;3.25;1.50;;;;;;;;;;10410166;23;20033;-74
2024/01/03 23:12:43;;;;;;;1.48;0.85;;;;;;;;;;10392006;28;20495;-74
2024/01/03 23:17:46;;;;;;;1.20;0.70;;;;;;;;;;10397648;28;20468;-74
2024/01/03 23:22:49;;;;;;;1.60;0.57;;;;;;;;;;10390917;28;20132;-74
2024/01/03 23:27:57;;;;;;;0.88;0.47;;;;;;;;;;10393132;28;20049;-74
2024/01/03 23:33:00;;;;;;;1.85;1.10;;;;;;;;;;10390842;28;20041;-74
2024/01/03 23:38:03;;;;;;;3.92;2.40;;;;;;;;;;10393183;28;20107;-74
2024/01/03 23:43:08;;;;;;;3.53;2.13;;;;;;;;;;10395651;28;20052;-74
2024/01/03 23:48:11;;;;;;;2.10;1.40;;;;;;;;;;10394313;28;20038;-73
2024/01/03 23:53:14;;;;;;;1.73;1.25;;;;;;;;;;10393376;28;20045;-73
2024/01/03 23:58:19;;;;;;;2.78;1.00;;;;;;;;;;10394161;28;20048;-74
